createdAt,value
2018-05-25T00:01:00.001Z,43.40
2018-05-25T00:02:00.244Z,41.90
2018-05-25T00:03:00.488Z,41.00
2018-05-25T00:04:00.730Z,40.40
2018-05-25T00:05:00.973Z,40.00
2018-05-25T00:06:01.218Z,40.20
2018-05-25T00:07:01.461Z,39.30
2018-05-25T00:08:01.709Z,39.00
2018-05-25T00:09:01.948Z,39.90
2018-05-25T00:10:02.191Z,39.00
2018-05-25T00:11:02.435Z,40.10
2018-05-25T00:12:02.680Z,40.90
2018-05-25T00:13:02.924Z,40.70
2018-05-25T00:14:03.168Z,40.80
2018-05-25T00:15:03.410Z,40.50
2018-05-25T00:16:03.656Z,42.40
2018-05-25T00:17:03.895Z,42.00
2018-05-25T00:18:04.141Z,42.10
2018-05-25T00:19:04.384Z,42.60
2018-05-25T00:20:04.623Z,42.60
2018-05-25T00:21:04.869Z,41.10
2018-05-25T00:22:05.109Z,41.60
2018-05-25T00:23:05.351Z,39.50
2018-05-25T00:24:05.593Z,38.90
2018-05-25T00:25:05.837Z,38.60
2018-05-25T00:26:06.084Z,40.00
2018-05-25T00:27:06.324Z,38.60
2018-05-25T00:28:06.566Z,37.30
2018-05-25T00:29:06.812Z,37.40
2018-05-25T00:30:07.054Z,38.30
2018-05-25T00:31:07.296Z,37.20
2018-05-25T00:32:07.541Z,37.30
2018-05-25T00:33:07.786Z,37.80
2018-05-25T00:34:08.026Z,35.60
2018-05-25T00:35:08.269Z,36.10
2018-05-25T00:36:08.511Z,36.50
2018-05-25T00:37:08.759Z,36.90
2018-05-25T00:38:08.997Z,36.80
2018-05-25T00:39:09.238Z,36.30
2018-05-25T00:40:09.482Z,36.00
2018-05-25T00:41:09.725Z,35.80
2018-05-25T00:42:09.970Z,36.10
2018-05-25T00:43:10.211Z,35.40
2018-05-25T00:44:10.454Z,34.80
2018-05-25T00:45:10.697Z,35.00
2018-05-25T00:46:10.938Z,36.40
2018-05-25T00:47:11.183Z,35.50
2018-05-25T00:48:11.427Z,36.20
2018-05-25T00:49:11.669Z,34.50
2018-05-25T00:50:11.913Z,36.40
2018-05-25T00:51:12.156Z,36.10
2018-05-25T00:52:12.401Z,35.40
2018-05-25T00:53:12.645Z,35.70
2018-05-25T00:54:12.887Z,36.50
2018-05-25T00:55:13.129Z,34.70
2018-05-25T00:56:13.373Z,34.90
2018-05-25T00:57:13.616Z,35.80
2018-05-25T00:58:13.859Z,36.00
2018-05-25T00:59:14.102Z,36.00
2018-05-25T01:00:14.345Z,36.70
2018-05-25T01:01:14.588Z,37.80
2018-05-25T01:02:14.833Z,37.80
2018-05-25T01:03:15.075Z,38.40
2018-05-25T01:04:15.323Z,37.90
2018-05-25T01:05:15.560Z,39.00
2018-05-25T01:06:15.805Z,37.90
2018-05-25T01:07:16.048Z,39.00
2018-05-25T01:08:16.294Z,37.00
2018-05-25T01:09:16.537Z,36.30
2018-05-25T01:10:16.784Z,36.50
2018-05-25T01:11:17.026Z,36.70
2018-05-25T01:12:17.271Z,35.00
2018-05-25T01:13:17.513Z,34.50
2018-05-25T01:14:17.756Z,36.60
2018-05-25T01:15:18.001Z,36.00
2018-05-25T01:16:18.242Z,36.10
2018-05-25T01:17:18.489Z,35.50
2018-05-25T01:18:18.730Z,36.50
2018-05-25T01:19:18.973Z,35.30
2018-05-25T01:20:19.217Z,36.00
2018-05-25T01:21:19.460Z,36.30
2018-05-25T01:22:19.702Z,36.10
2018-05-25T01:23:19.945Z,37.80
2018-05-25T01:24:20.188Z,35.40
2018-05-25T01:25:20.430Z,35.00
2018-05-25T01:26:20.675Z,34.30
2018-05-25T01:27:20.921Z,36.20
2018-05-25T01:28:21.163Z,36.20
2018-05-25T01:29:21.406Z,36.90
2018-05-25T01:30:21.649Z,38.50
2018-05-25T01:31:21.892Z,38.70
2018-05-25T01:32:22.135Z,39.80
2018-05-25T01:33:22.378Z,41.30
2018-05-25T01:34:22.622Z,42.80
2018-05-25T01:35:22.865Z,42.80
2018-05-25T01:36:23.109Z,43.80
2018-05-25T01:37:23.353Z,44.00
2018-05-25T01:38:23.597Z,43.30
2018-05-25T01:39:23.840Z,41.40
2018-05-25T01:40:24.085Z,42.80
2018-05-25T01:41:24.328Z,42.20
2018-05-25T01:42:24.571Z,42.40
2018-05-25T01:43:24.814Z,42.40
2018-05-25T01:44:25.058Z,42.60
2018-05-25T01:45:25.300Z,42.50
2018-05-25T01:46:25.543Z,43.30
2018-05-25T01:47:25.789Z,45.00
2018-05-25T01:48:26.031Z,44.60
2018-05-25T01:49:26.280Z,44.50
2018-05-25T01:50:26.517Z,45.50
2018-05-25T01:51:26.761Z,45.70
2018-05-25T01:52:27.009Z,45.90
2018-05-25T01:53:27.245Z,48.70
2018-05-25T01:54:27.491Z,47.80
2018-05-25T01:55:27.734Z,47.10
2018-05-25T01:56:27.977Z,48.40
2018-05-25T01:57:28.219Z,48.60
2018-05-25T01:58:28.462Z,50.40
2018-05-25T01:59:28.705Z,50.50
2018-05-25T02:00:28.948Z,53.40
2018-05-25T02:01:29.192Z,51.10
2018-05-25T02:02:29.435Z,51.00
2018-05-25T02:03:29.678Z,52.80
2018-05-25T02:04:29.922Z,52.20
2018-05-25T02:05:30.164Z,52.70
2018-05-25T02:06:30.405Z,52.40
2018-05-25T02:07:30.650Z,51.70
2018-05-25T02:08:30.893Z,51.30
2018-05-25T02:09:31.135Z,51.80
2018-05-25T02:10:31.379Z,51.50
2018-05-25T02:11:31.619Z,51.40
2018-05-25T02:12:31.862Z,51.70
2018-05-25T02:13:32.105Z,49.10
2018-05-25T02:14:32.357Z,49.10
2018-05-25T02:15:32.594Z,47.50
2018-05-25T02:16:32.837Z,51.60
2018-05-25T02:17:33.081Z,48.90
2018-05-25T02:18:33.323Z,48.90
2018-05-25T02:19:33.567Z,48.40
2018-05-25T02:20:33.810Z,50.30
2018-05-25T02:21:34.053Z,47.80
2018-05-25T02:22:34.296Z,47.80
2018-05-25T02:23:34.538Z,48.90
2018-05-25T02:24:34.781Z,48.60
2018-05-25T02:25:35.022Z,48.80
2018-05-25T02:26:35.267Z,49.90
2018-05-25T02:27:35.511Z,48.20
2018-05-25T02:28:35.753Z,47.90
2018-05-25T02:29:35.997Z,48.70
2018-05-25T02:30:36.240Z,46.50
2018-05-25T02:31:36.484Z,47.60
2018-05-25T02:32:36.731Z,48.10
2018-05-25T02:33:36.971Z,46.00
2018-05-25T02:34:37.215Z,45.00
2018-05-25T02:35:37.458Z,45.60
2018-05-25T02:36:37.699Z,46.10
2018-05-25T02:37:37.944Z,45.90
2018-05-25T02:38:38.214Z,45.60
2018-05-25T02:39:38.429Z,45.20
2018-05-25T02:40:38.672Z,44.10
2018-05-25T02:41:38.914Z,43.60
2018-05-25T02:42:39.170Z,42.30
2018-05-25T02:43:39.402Z,42.90
2018-05-25T02:44:39.646Z,43.40
2018-05-25T02:45:39.892Z,42.90
2018-05-25T02:46:40.131Z,42.40
2018-05-25T02:47:40.373Z,42.50
2018-05-25T02:48:40.617Z,42.60
2018-05-25T02:49:40.859Z,40.80
2018-05-25T02:50:41.104Z,40.30
2018-05-25T02:51:41.349Z,40.90
2018-05-25T02:52:41.592Z,42.10
2018-05-25T02:53:41.839Z,40.80
2018-05-25T02:54:42.081Z,40.00
2018-05-25T02:55:42.324Z,41.30
2018-05-25T02:56:42.565Z,40.40
2018-05-25T02:57:42.810Z,39.90
2018-05-25T02:58:43.052Z,40.00
2018-05-25T02:59:43.291Z,38.40
2018-05-25T03:00:43.540Z,37.40
2018-05-25T03:01:43.784Z,38.40
2018-05-25T03:02:44.026Z,38.20
2018-05-25T03:03:44.268Z,38.40
2018-05-25T03:04:44.511Z,37.70
2018-05-25T03:05:44.754Z,38.00
2018-05-25T03:06:45.023Z,37.00
2018-05-25T03:07:45.246Z,38.20
2018-05-25T03:08:45.484Z,37.40
2018-05-25T03:09:45.728Z,37.50
2018-05-25T03:10:45.972Z,36.70
2018-05-25T03:11:46.215Z,38.00
2018-05-25T03:12:46.460Z,37.90
2018-05-25T03:13:46.702Z,38.30
2018-05-25T03:14:46.943Z,37.70
2018-05-25T03:15:47.188Z,37.70
2018-05-25T03:16:47.431Z,37.70
2018-05-25T03:17:47.673Z,37.30
2018-05-25T03:18:47.918Z,38.90
2018-05-25T03:19:48.162Z,39.90
2018-05-25T03:20:48.406Z,37.20
2018-05-25T03:21:48.649Z,38.70
2018-05-25T03:22:48.891Z,41.60
2018-05-25T03:23:49.137Z,39.90
2018-05-25T03:24:49.381Z,39.80
2018-05-25T03:25:49.624Z,42.20
2018-05-25T03:26:49.880Z,42.90
2018-05-25T03:27:50.114Z,43.20
2018-05-25T03:28:50.359Z,43.30
2018-05-25T03:29:50.602Z,41.80
2018-05-25T03:30:50.846Z,42.60
2018-05-25T03:31:51.089Z,44.00
2018-05-25T03:32:51.331Z,42.70
2018-05-25T03:33:51.576Z,44.20
2018-05-25T03:34:51.821Z,47.60
2018-05-25T03:35:52.068Z,46.40
2018-05-25T03:36:52.312Z,48.50
2018-05-25T03:37:52.556Z,51.70
2018-05-25T03:38:52.799Z,49.00
2018-05-25T03:39:53.044Z,51.50
2018-05-25T03:40:53.287Z,51.60
2018-05-25T03:41:53.529Z,52.00
2018-05-25T03:42:53.774Z,52.70
2018-05-25T03:43:54.017Z,52.60
2018-05-25T03:44:54.263Z,51.40
2018-05-25T03:45:54.503Z,51.30
2018-05-25T03:46:54.748Z,50.60
2018-05-25T03:47:54.992Z,51.50
2018-05-25T03:48:55.234Z,51.60
2018-05-25T03:49:55.477Z,53.20
2018-05-25T03:50:55.721Z,56.50
2018-05-25T03:51:55.963Z,54.40
2018-05-25T03:52:56.205Z,56.40
2018-05-25T03:53:56.448Z,57.30
2018-05-25T03:54:56.691Z,55.30
2018-05-25T03:55:56.936Z,53.30
2018-05-25T03:56:57.180Z,53.20
2018-05-25T03:57:57.425Z,50.80
2018-05-25T03:58:57.667Z,50.30
2018-05-25T03:59:57.910Z,50.00
2018-05-25T04:00:58.154Z,51.80
2018-05-25T04:01:58.397Z,52.20
2018-05-25T04:02:58.643Z,54.00
2018-05-25T04:03:58.886Z,54.10
2018-05-25T04:04:59.115Z,54.60
2018-05-25T04:05:59.359Z,52.10
2018-05-25T04:06:59.603Z,53.60
2018-05-25T04:07:59.847Z,51.70
2018-05-25T04:09:00.092Z,49.50
2018-05-25T04:10:00.333Z,51.00
2018-05-25T04:11:00.577Z,52.70
2018-05-25T04:12:00.823Z,51.20
2018-05-25T04:13:01.064Z,50.60
2018-05-25T04:14:01.307Z,51.50
2018-05-25T04:15:01.551Z,50.20
2018-05-25T04:16:01.798Z,52.20
2018-05-25T04:17:02.042Z,54.10
2018-05-25T04:18:02.285Z,55.90
2018-05-25T04:19:02.532Z,56.80
2018-05-25T04:20:02.779Z,57.20
2018-05-25T04:21:03.019Z,58.20
2018-05-25T04:22:03.263Z,59.20
2018-05-25T04:23:03.506Z,57.80
2018-05-25T04:24:03.750Z,61.00
2018-05-25T04:25:03.993Z,59.50
2018-05-25T04:26:04.257Z,59.80
2018-05-25T04:27:04.483Z,60.60
2018-05-25T04:28:04.729Z,59.00
2018-05-25T04:29:04.972Z,58.50
2018-05-25T04:30:05.214Z,58.90
2018-05-25T04:31:05.463Z,56.40
2018-05-25T04:32:05.704Z,58.00
2018-05-25T04:33:05.948Z,58.00
2018-05-25T04:34:06.195Z,55.30
2018-05-25T04:35:06.438Z,53.90
2018-05-25T04:36:06.674Z,53.80
2018-05-25T04:37:06.938Z,52.50
2018-05-25T04:38:07.181Z,51.80
2018-05-25T04:39:07.424Z,52.30
2018-05-25T04:40:07.669Z,52.00
2018-05-25T04:41:07.912Z,52.50
2018-05-25T04:42:08.154Z,52.30
2018-05-25T04:43:08.400Z,51.70
2018-05-25T04:44:08.643Z,52.60
2018-05-25T04:45:08.886Z,50.60
2018-05-25T04:46:09.135Z,52.90
2018-05-25T04:47:09.375Z,50.60
2018-05-25T04:48:09.619Z,50.90
2018-05-25T04:49:09.862Z,50.90
2018-05-25T04:50:10.106Z,51.40
2018-05-25T04:51:10.349Z,50.80
2018-05-25T04:52:10.593Z,50.00
2018-05-25T04:53:10.838Z,50.10
2018-05-25T04:54:11.081Z,49.60
2018-05-25T04:55:11.327Z,50.00
2018-05-25T04:56:11.571Z,51.00
2018-05-25T04:57:11.814Z,51.20
2018-05-25T04:58:12.059Z,50.70
2018-05-25T04:59:12.304Z,50.60
2018-05-25T05:00:12.545Z,51.00
2018-05-25T05:01:12.792Z,51.40
2018-05-25T05:02:13.037Z,51.00
2018-05-25T05:03:13.280Z,51.30
2018-05-25T05:04:13.524Z,50.10
2018-05-25T05:05:13.773Z,48.50
2018-05-25T05:06:14.013Z,47.50
2018-05-25T05:07:14.255Z,48.80
2018-05-25T05:08:14.500Z,48.50
2018-05-25T05:09:14.744Z,50.20
2018-05-25T05:10:14.990Z,51.50
2018-05-25T05:11:15.239Z,49.20
2018-05-25T05:12:15.477Z,50.50
2018-05-25T05:13:15.722Z,49.40
2018-05-25T05:14:15.968Z,48.00
2018-05-25T05:15:16.210Z,47.60
2018-05-25T05:16:16.454Z,48.20
2018-05-25T05:17:16.697Z,47.50
2018-05-25T05:18:16.943Z,48.00
2018-05-25T05:19:17.187Z,45.40
2018-05-25T05:20:17.429Z,44.80
2018-05-25T05:21:17.675Z,42.20
2018-05-25T05:22:17.920Z,40.90
2018-05-25T05:23:18.164Z,40.40
2018-05-25T05:24:18.409Z,41.00
2018-05-25T05:25:18.653Z,41.20
2018-05-25T05:26:18.901Z,40.10
2018-05-25T05:27:19.143Z,40.90
2018-05-25T05:28:19.388Z,41.50
2018-05-25T05:29:19.632Z,40.50
2018-05-25T05:30:19.877Z,40.40
2018-05-25T05:31:20.124Z,40.10
2018-05-25T05:32:20.365Z,39.60
2018-05-25T05:33:20.609Z,37.70
2018-05-25T05:34:20.853Z,38.20
2018-05-25T05:35:21.102Z,37.80
2018-05-25T05:36:21.344Z,36.60
2018-05-25T05:37:21.588Z,34.70
2018-05-25T05:38:21.832Z,35.20
2018-05-25T05:39:22.078Z,34.00
2018-05-25T05:40:22.323Z,31.90
2018-05-25T05:41:22.566Z,33.90
2018-05-25T05:42:22.811Z,33.80
2018-05-25T05:43:23.056Z,31.80
2018-05-25T05:44:23.301Z,30.30
2018-05-25T05:45:23.546Z,30.70
2018-05-25T05:46:23.792Z,32.50
2018-05-25T05:47:24.037Z,31.50
2018-05-25T05:48:24.283Z,31.60
2018-05-25T05:49:24.530Z,31.30
2018-05-25T05:50:24.771Z,32.10
2018-05-25T05:51:25.018Z,31.80
2018-05-25T05:52:25.265Z,31.40
2018-05-25T05:53:25.514Z,30.90
2018-05-25T05:54:25.755Z,31.50
2018-05-25T05:55:26.002Z,28.80
2018-05-25T05:56:26.247Z,24.90
2018-05-25T05:57:26.492Z,26.40
2018-05-25T05:58:26.738Z,26.50
2018-05-25T05:59:26.981Z,26.50
2018-05-25T06:00:27.229Z,26.70
2018-05-25T06:01:27.475Z,26.80
2018-05-25T06:02:27.720Z,26.80
2018-05-25T06:03:27.967Z,26.90
2018-05-25T06:04:28.272Z,26.40
2018-05-25T06:05:28.459Z,26.00
2018-05-25T06:06:28.704Z,25.50
2018-05-25T06:07:28.952Z,25.70
2018-05-25T06:08:29.197Z,25.50
2018-05-25T06:09:29.444Z,26.50
2018-05-25T06:10:29.689Z,26.00
2018-05-25T06:11:29.934Z,25.70
2018-05-25T06:12:30.184Z,24.10
2018-05-25T06:13:30.431Z,25.50
2018-05-25T06:14:30.675Z,25.20
2018-05-25T06:15:30.922Z,23.40
2018-05-25T06:16:31.169Z,23.40
2018-05-25T06:17:31.415Z,23.30
2018-05-25T06:18:31.660Z,23.40
2018-05-25T06:19:31.907Z,23.00
2018-05-25T06:20:32.150Z,22.40
2018-05-25T06:21:32.401Z,21.50
2018-05-25T06:22:32.660Z,22.30
2018-05-25T06:23:32.891Z,21.50
2018-05-25T06:24:33.142Z,24.20
2018-05-25T06:25:33.389Z,22.90
2018-05-25T06:26:33.640Z,22.70
2018-05-25T06:27:33.883Z,22.40
2018-05-25T06:28:34.131Z,20.80
2018-05-25T06:29:34.381Z,21.10
2018-05-25T06:30:34.622Z,21.60
2018-05-25T06:31:34.869Z,21.20
2018-05-25T06:32:35.117Z,21.30
2018-05-25T06:33:35.364Z,21.50
2018-05-25T06:34:35.611Z,20.90
2018-05-25T06:35:35.855Z,22.10
2018-05-25T06:36:36.103Z,20.90
2018-05-25T06:37:36.351Z,20.10
2018-05-25T06:38:36.597Z,19.50
2018-05-25T06:39:36.848Z,20.00
2018-05-25T06:40:37.091Z,19.60
2018-05-25T06:41:37.338Z,20.00
2018-05-25T06:42:37.590Z,19.40
2018-05-25T06:43:37.836Z,20.30
2018-05-25T06:44:38.084Z,20.20
2018-05-25T06:45:38.328Z,19.10
2018-05-25T06:46:38.576Z,20.70
2018-05-25T06:47:38.822Z,18.70
2018-05-25T06:48:39.070Z,18.50
2018-05-25T06:49:39.316Z,19.60
2018-05-25T06:50:39.575Z,19.00
2018-05-25T06:51:39.812Z,18.30
2018-05-25T06:52:40.059Z,18.00
2018-05-25T06:53:40.308Z,17.30
2018-05-25T06:54:40.553Z,17.50
2018-05-25T06:55:40.801Z,17.40
2018-05-25T06:56:41.049Z,18.60
2018-05-25T06:57:41.296Z,18.60
2018-05-25T06:58:41.544Z,17.70
2018-05-25T06:59:41.796Z,18.50
2018-05-25T07:00:42.041Z,18.00
2018-05-25T07:01:42.291Z,17.60
2018-05-25T07:02:42.536Z,18.40
2018-05-25T07:03:42.784Z,18.20
2018-05-25T07:04:43.031Z,17.70
2018-05-25T07:05:43.278Z,18.70
2018-05-25T07:06:43.530Z,18.10
2018-05-25T07:07:43.773Z,18.50
2018-05-25T07:08:44.021Z,17.40
2018-05-25T07:09:44.266Z,16.70
2018-05-25T07:10:44.515Z,17.70
2018-05-25T07:11:44.761Z,17.10
2018-05-25T07:12:45.009Z,16.30
2018-05-25T07:13:45.257Z,17.00
2018-05-25T07:14:45.503Z,15.70
2018-05-25T07:15:45.752Z,15.60
2018-05-25T07:16:46.001Z,16.30
2018-05-25T07:17:46.263Z,17.00
2018-05-25T07:18:46.494Z,16.10
2018-05-25T07:19:46.746Z,15.20
2018-05-25T07:20:46.994Z,16.40
2018-05-25T07:21:47.243Z,16.20
2018-05-25T07:22:47.490Z,16.70
2018-05-25T07:23:47.738Z,17.40
2018-05-25T07:24:47.989Z,16.70
2018-05-25T07:25:48.237Z,15.50
2018-05-25T07:26:48.500Z,16.00
2018-05-25T07:27:48.733Z,15.60
2018-05-25T07:28:48.976Z,16.60
2018-05-25T07:29:49.241Z,16.00
2018-05-25T07:30:49.491Z,17.10
2018-05-25T07:31:49.737Z,17.70
2018-05-25T07:32:49.987Z,17.40
2018-05-25T07:33:50.236Z,18.50
2018-05-25T07:34:50.488Z,17.10
2018-05-25T07:35:50.735Z,16.40
2018-05-25T07:36:50.984Z,18.00
2018-05-25T07:37:51.232Z,16.70
2018-05-25T07:38:51.480Z,16.40
2018-05-25T07:39:51.730Z,16.40
2018-05-25T07:40:51.978Z,16.70
2018-05-25T07:41:52.224Z,14.90
2018-05-25T07:42:52.474Z,16.10
2018-05-25T07:43:52.722Z,15.80
2018-05-25T07:44:52.971Z,15.60
2018-05-25T07:46:00.849Z,15.00
2018-05-25T07:46:53.526Z,15.60
2018-05-25T07:47:53.776Z,15.10
2018-05-25T07:48:54.024Z,14.60
2018-05-25T07:49:54.272Z,14.70
2018-05-25T07:50:54.522Z,14.00
2018-05-25T07:51:54.771Z,14.50
2018-05-25T07:52:55.021Z,12.70
2018-05-25T07:53:55.274Z,13.10
2018-05-25T07:54:55.523Z,13.10
2018-05-25T07:55:55.775Z,13.20
2018-05-25T07:56:56.024Z,13.10
2018-05-25T07:57:56.274Z,12.70
2018-05-25T07:58:56.522Z,13.10
2018-05-25T07:59:56.771Z,11.50
2018-05-25T08:00:57.021Z,12.10
2018-05-25T08:01:57.271Z,13.20
2018-05-25T08:02:57.523Z,12.70
2018-05-25T08:03:57.772Z,12.80
2018-05-25T08:04:58.022Z,11.80
2018-05-25T08:05:58.274Z,12.60
2018-05-25T08:06:58.527Z,12.40
2018-05-25T08:07:58.776Z,12.20
2018-05-25T08:08:59.024Z,12.30
2018-05-25T08:09:59.273Z,12.30
2018-05-25T08:10:59.531Z,13.00
2018-05-25T08:11:59.831Z,13.60
2018-05-25T08:13:00.028Z,12.50
2018-05-25T08:14:00.277Z,12.70
2018-05-25T08:15:00.529Z,11.90
2018-05-25T08:16:00.780Z,11.80
2018-05-25T08:17:01.027Z,12.00
2018-05-25T08:18:01.277Z,11.90
2018-05-25T08:19:01.524Z,12.50
2018-05-25T08:20:01.774Z,11.50
2018-05-25T08:21:02.032Z,10.80
2018-05-25T08:22:02.350Z,10.50
2018-05-25T08:23:02.533Z,9.50
2018-05-25T08:24:02.783Z,10.20
2018-05-25T08:25:03.033Z,10.10
2018-05-25T08:26:03.284Z,11.00
2018-05-25T08:27:03.537Z,10.50
2018-05-25T08:28:03.788Z,10.20
2018-05-25T08:29:04.039Z,10.70
2018-05-25T08:30:04.290Z,9.90
2018-05-25T08:31:04.540Z,9.20
2018-05-25T08:32:04.795Z,8.90
2018-05-25T08:33:05.048Z,9.90
2018-05-25T08:34:05.305Z,9.60
2018-05-25T08:35:05.546Z,9.30
2018-05-25T08:36:05.795Z,9.10
2018-05-25T08:37:06.047Z,10.50
2018-05-25T08:38:06.297Z,9.00
2018-05-25T08:39:06.547Z,8.60
2018-05-25T08:40:06.797Z,8.90
2018-05-25T08:41:07.047Z,8.90
2018-05-25T08:42:07.298Z,8.90
2018-05-25T08:43:07.551Z,8.80
2018-05-25T08:44:07.801Z,8.90
2018-05-25T08:45:08.049Z,8.70
2018-05-25T08:46:08.299Z,8.30
2018-05-25T08:47:08.548Z,8.10
2018-05-25T08:48:08.798Z,8.20
2018-05-25T08:49:09.049Z,8.70
2018-05-25T08:50:09.299Z,8.60
2018-05-25T08:51:09.549Z,8.40
2018-05-25T08:52:09.800Z,8.00
2018-05-25T08:53:10.052Z,8.00
2018-05-25T08:54:10.300Z,7.10
2018-05-25T08:55:10.561Z,7.20
2018-05-25T08:56:10.801Z,7.90
2018-05-25T08:57:11.050Z,7.80
2018-05-25T08:58:11.506Z,7.60
2018-05-25T08:59:11.550Z,8.20
2018-05-25T09:00:11.798Z,8.00
2018-05-25T09:01:12.062Z,7.20
2018-05-25T09:02:12.298Z,7.40
2018-05-25T09:03:12.548Z,6.40
2018-05-25T09:04:12.801Z,7.10
2018-05-25T09:05:13.052Z,6.40
2018-05-25T09:06:13.316Z,6.10
2018-05-25T09:07:13.567Z,5.40
2018-05-25T09:08:13.819Z,6.10
2018-05-25T09:09:14.071Z,5.90
2018-05-25T09:10:14.323Z,6.40
2018-05-25T09:11:14.576Z,5.00
2018-05-25T09:12:14.827Z,5.00
2018-05-25T09:13:15.079Z,4.70
2018-05-25T09:14:15.334Z,5.30
2018-05-25T09:15:15.586Z,4.90
2018-05-25T09:16:15.839Z,5.20
2018-05-25T09:17:16.092Z,5.40
2018-05-25T09:18:16.346Z,4.80
2018-05-25T09:19:16.603Z,5.40
2018-05-25T09:20:16.854Z,4.60
2018-05-25T09:21:17.109Z,5.10
2018-05-25T09:22:17.364Z,4.80
2018-05-25T09:23:17.622Z,4.70
2018-05-25T09:24:17.876Z,4.70
2018-05-25T09:25:18.162Z,4.30
2018-05-25T09:26:18.419Z,4.30
2018-05-25T09:27:18.675Z,4.80
2018-05-25T09:28:18.932Z,4.80
2018-05-25T09:29:19.185Z,4.40
2018-05-25T09:30:19.440Z,3.80
2018-05-25T09:31:19.695Z,4.60
2018-05-25T09:32:19.948Z,4.50
2018-05-25T09:33:20.202Z,4.30
2018-05-25T09:34:20.457Z,4.00
2018-05-25T09:35:20.711Z,4.10
2018-05-25T09:36:20.997Z,4.00
2018-05-25T09:37:21.218Z,4.00
2018-05-25T09:38:21.472Z,3.80
2018-05-25T09:39:21.729Z,4.50
2018-05-25T09:40:21.986Z,4.40
2018-05-25T09:41:22.236Z,4.20
2018-05-25T09:42:22.490Z,4.00
2018-05-25T09:43:22.754Z,3.90
2018-05-25T09:44:23.001Z,4.30
2018-05-25T09:45:23.258Z,4.40
2018-05-25T09:46:23.516Z,5.20
2018-05-25T09:47:23.764Z,4.80
2018-05-25T09:48:24.020Z,5.10
2018-05-25T09:49:24.272Z,5.60
2018-05-25T09:50:24.529Z,5.90
2018-05-25T09:51:24.783Z,6.00
2018-05-25T09:52:25.037Z,6.70
2018-05-25T09:53:25.296Z,6.30
2018-05-25T09:54:33.183Z,5.80
2018-05-25T09:55:25.864Z,7.20
2018-05-25T09:56:26.117Z,7.90
2018-05-25T09:57:26.371Z,8.30
2018-05-25T09:58:26.625Z,7.70
2018-05-25T09:59:26.884Z,7.40
2018-05-25T10:00:27.133Z,7.00
2018-05-25T10:01:27.391Z,6.40
2018-05-25T10:02:27.642Z,6.20
2018-05-25T10:03:27.897Z,6.10
2018-05-25T10:04:28.153Z,5.90
2018-05-25T10:05:28.409Z,5.00
2018-05-25T10:06:28.665Z,5.80
2018-05-25T10:07:28.922Z,5.00
2018-05-25T10:08:29.175Z,5.30
2018-05-25T10:09:29.431Z,5.10
2018-05-25T10:10:29.687Z,4.90
2018-05-25T10:11:29.940Z,5.00
2018-05-25T10:12:30.196Z,5.20
2018-05-25T10:13:30.451Z,5.00
2018-05-25T10:14:30.706Z,4.90
2018-05-25T10:15:30.962Z,4.00
2018-05-25T10:16:31.218Z,3.80
2018-05-25T10:17:31.482Z,3.90
2018-05-25T10:18:31.728Z,4.90
2018-05-25T10:19:31.985Z,5.20
2018-05-25T10:20:32.241Z,6.20
2018-05-25T10:21:32.496Z,6.00
2018-05-25T10:22:32.752Z,5.70
2018-05-25T10:23:33.011Z,6.20
2018-05-25T10:24:33.265Z,5.90
2018-05-25T10:25:33.523Z,5.10
2018-05-25T10:26:33.781Z,4.40
2018-05-25T10:27:34.035Z,4.10
2018-05-25T10:28:34.302Z,4.40
2018-05-25T10:29:34.550Z,4.40
2018-05-25T10:30:34.807Z,4.40
2018-05-25T10:31:35.063Z,4.20
2018-05-25T10:32:35.319Z,3.90
2018-05-25T10:33:35.583Z,4.00
2018-05-25T10:34:35.834Z,4.60
2018-05-25T10:35:36.090Z,4.00
2018-05-25T10:36:36.347Z,4.60
2018-05-25T10:37:36.603Z,3.90
2018-05-25T10:38:36.860Z,3.90
2018-05-25T10:39:37.117Z,4.00
2018-05-25T10:40:37.372Z,3.70
2018-05-25T10:41:37.628Z,3.40
2018-05-25T10:42:37.886Z,3.40
2018-05-25T10:43:38.141Z,3.30
2018-05-25T10:44:38.398Z,3.20
2018-05-25T10:45:38.671Z,3.40
2018-05-25T10:46:38.915Z,3.30
2018-05-25T10:47:39.174Z,4.20
2018-05-25T10:48:39.435Z,3.60
2018-05-25T10:49:39.691Z,4.10
2018-05-25T10:50:39.949Z,3.40
2018-05-25T10:51:40.205Z,3.90
2018-05-25T10:52:40.466Z,3.30
2018-05-25T10:53:40.722Z,3.30
2018-05-25T10:54:40.979Z,3.30
2018-05-25T10:55:41.234Z,2.90
2018-05-25T10:56:41.491Z,2.50
2018-05-25T10:57:41.749Z,3.00
2018-05-25T10:58:42.006Z,3.00
2018-05-25T10:59:42.264Z,3.60
2018-05-25T11:00:42.519Z,3.20
2018-05-25T11:01:42.781Z,3.30
2018-05-25T11:02:43.034Z,3.20
2018-05-25T11:03:43.329Z,3.00
2018-05-25T11:04:43.555Z,2.90
2018-05-25T11:05:43.807Z,3.40
2018-05-25T11:06:44.064Z,3.10
2018-05-25T11:07:44.322Z,3.20
2018-05-25T11:08:44.576Z,3.30
2018-05-25T11:09:44.839Z,2.90
2018-05-25T11:10:45.100Z,3.10
2018-05-25T11:11:45.350Z,3.40
2018-05-25T11:12:45.606Z,3.20
2018-05-25T11:13:45.864Z,3.50
2018-05-25T11:14:46.122Z,3.60
2018-05-25T11:15:46.381Z,3.40
2018-05-25T11:16:46.637Z,3.30
2018-05-25T11:17:46.894Z,3.50
2018-05-25T11:18:47.150Z,3.10
2018-05-25T11:19:47.409Z,2.90
2018-05-25T11:20:47.666Z,2.50
2018-05-25T11:21:47.922Z,2.50
2018-05-25T11:22:48.177Z,2.40
2018-05-25T11:23:48.446Z,2.80
2018-05-25T11:24:48.695Z,2.60
2018-05-25T11:25:48.952Z,2.60
2018-05-25T11:26:49.204Z,2.40
2018-05-25T11:27:49.460Z,2.30
2018-05-25T11:28:49.716Z,2.40
2018-05-25T11:29:50.000Z,2.40
2018-05-25T11:30:50.282Z,2.50
2018-05-25T11:31:50.532Z,2.20
2018-05-25T11:32:50.791Z,3.10
2018-05-25T11:33:51.054Z,2.90
2018-05-25T11:34:51.312Z,3.00
2018-05-25T11:35:51.566Z,3.00
2018-05-25T11:36:51.822Z,2.90
2018-05-25T11:37:52.079Z,2.80
2018-05-25T11:38:52.336Z,3.00
2018-05-25T11:39:52.591Z,2.70
2018-05-25T11:40:52.849Z,3.00
2018-05-25T11:41:53.103Z,3.20
2018-05-25T11:42:53.362Z,3.00
2018-05-25T11:43:53.617Z,2.90
2018-05-25T11:44:53.875Z,2.90
2018-05-25T11:45:54.129Z,3.40
2018-05-25T11:46:54.389Z,3.20
2018-05-25T11:47:54.645Z,2.90
2018-05-25T11:48:54.901Z,2.80
2018-05-25T11:49:55.157Z,2.80
2018-05-25T11:50:55.414Z,2.70
2018-05-25T11:51:55.670Z,2.70
2018-05-25T11:52:55.932Z,2.80
2018-05-25T11:53:56.181Z,2.60
2018-05-25T11:54:56.442Z,2.50
2018-05-25T11:55:56.691Z,2.60
2018-05-25T11:56:56.949Z,2.90
2018-05-25T11:57:57.203Z,2.70
2018-05-25T11:58:57.456Z,2.50
2018-05-25T11:59:57.715Z,2.60
2018-05-25T12:00:57.974Z,2.50
2018-05-25T12:01:58.232Z,2.50
2018-05-25T12:02:58.554Z,2.00
2018-05-25T12:03:58.814Z,2.10
2018-05-25T12:04:59.072Z,2.10
2018-05-25T12:05:59.330Z,1.90
2018-05-25T12:06:59.588Z,1.80
2018-05-25T12:07:59.847Z,1.90
2018-05-25T12:09:00.106Z,2.00
2018-05-25T12:10:00.408Z,1.80
2018-05-25T12:11:00.665Z,1.80
2018-05-25T12:12:00.921Z,1.90
2018-05-25T12:13:01.170Z,2.00
2018-05-25T12:14:01.429Z,2.10
2018-05-25T12:15:01.686Z,2.20
2018-05-25T12:16:01.945Z,2.20
2018-05-25T12:17:02.199Z,2.10
2018-05-25T12:18:02.452Z,2.10
2018-05-25T12:19:02.708Z,2.30
2018-05-25T12:20:03.002Z,2.60
2018-05-25T12:21:03.263Z,2.40
2018-05-25T12:22:03.518Z,2.40
2018-05-25T12:23:03.773Z,2.30
2018-05-25T12:24:04.026Z,2.10
2018-05-25T12:25:04.329Z,1.90
2018-05-25T12:26:04.607Z,2.20
2018-05-25T12:27:04.908Z,1.90
2018-05-25T12:28:05.223Z,1.90
2018-05-25T12:29:05.450Z,2.00
2018-05-25T12:30:05.742Z,1.90
2018-05-25T12:31:05.999Z,1.90
2018-05-25T12:32:06.251Z,1.80
2018-05-25T12:33:06.505Z,1.90
2018-05-25T12:34:06.785Z,2.00
2018-05-25T12:35:07.017Z,2.00
2018-05-25T12:36:07.270Z,2.20
2018-05-25T12:37:07.524Z,1.70
2018-05-25T12:38:07.781Z,2.10
2018-05-25T12:39:08.038Z,2.40
2018-05-25T12:40:08.291Z,2.60
2018-05-25T12:41:08.551Z,2.10
2018-05-25T12:42:08.801Z,2.80
2018-05-25T12:43:09.054Z,2.80
2018-05-25T12:44:09.313Z,2.40
2018-05-25T12:45:09.562Z,2.30
2018-05-25T12:46:09.817Z,2.10
2018-05-25T12:47:10.076Z,2.10
2018-05-25T12:48:10.337Z,2.30
2018-05-25T12:49:10.592Z,2.20
2018-05-25T12:50:10.850Z,2.50
2018-05-25T12:51:11.106Z,2.20
2018-05-25T12:52:11.360Z,2.40
2018-05-25T12:53:11.624Z,2.10
2018-05-25T12:54:11.877Z,2.10
2018-05-25T12:55:12.135Z,2.00
2018-05-25T12:56:12.392Z,2.40
2018-05-25T12:57:12.651Z,2.00
2018-05-25T12:58:12.911Z,2.40
2018-05-25T12:59:13.170Z,2.60
2018-05-25T13:00:13.424Z,2.10
2018-05-25T13:01:13.681Z,2.50
2018-05-25T13:02:13.938Z,2.40
2018-05-25T13:03:14.192Z,2.40
2018-05-25T13:04:14.446Z,2.50
2018-05-25T13:05:14.701Z,2.30